Time;durP1;ratioP1;P1;durP2;ratioP2;P2;SDS_P1;SDS_P2;PMS_P1;PMS_P2;Temp;Humidity;BMP_temperature;BMP_pressure;BME280_temperature;BME280_humidity;BME280_pressure;Samples;Min_cycle;Max_cycle;Signal;HPM_P1;HPM_P2
2023/06/16 00:00:47;;;;;;;;;;;25.20;42.30;;;;;;3053051;19;4594;-26
2023/06/16 00:01:48;;;;;;;;;;;25.20;42.30;;;;;;3052666;19;4463;-27
2023/06/16 00:02:49;;;;;;;;;;;25.20;42.40;;;;;;3052776;19;4486;-27
2023/06/16 00:03:51;;;;;;;;;;;25.20;42.40;;;;;;3053363;19;4465;-26
2023/06/16 00:04:52;;;;;;;;;;;25.20;42.30;;;;;;3052860;19;4575;-26
2023/06/16 00:05:52;;;;;;;;;;;25.20;42.40;;;;;;3052176;19;4459;-27
2023/06/16 00:06:54;;;;;;;;;;;25.20;42.40;;;;;;3053223;19;4605;-26
2023/06/16 00:07:58;;;;;;;;;;;25.20;42.30;;;;;;3054307;19;4322;-26
2023/06/16 00:09:00;;;;;;;;;;;25.20;42.40;;;;;;3056341;19;4536;-23
2023/06/16 00:10:01;;;;;;;;;;;25.10;42.30;;;;;;3055849;19;4650;-24
2023/06/16 00:11:01;;;;;;;;;;;25.20;42.40;;;;;;3056194;19;4470;-23
2023/06/16 00:12:03;;;;;;;;;;;25.20;42.30;;;;;;3056390;19;4460;-24
2023/06/16 00:13:03;;;;;;;;;;;25.20;42.30;;;;;;3056205;19;4338;-23
2023/06/16 00:14:04;;;;;;;;;;;25.20;42.30;;;;;;3056174;19;4483;-23
2023/06/16 00:15:06;;;;;;;;;;;25.20;42.30;;;;;;3055577;19;4474;-23
2023/06/16 00:16:07;;;;;;;;;;;25.20;42.30;;;;;;3055413;19;4722;-24
2023/06/16 00:17:08;;;;;;;;;;;25.10;42.30;;;;;;3056602;19;4502;-24
2023/06/16 00:18:10;;;;;;;;;;;25.20;42.40;;;;;;3055029;19;4601;-24
2023/06/16 00:19:10;;;;;;;;;;;25.10;42.80;;;;;;3055372;19;4485;-24
2023/06/16 00:20:15;;;;;;;;;;;25.20;42.30;;;;;;3056128;19;4535;-24
2023/06/16 00:21:19;;;;;;;;;;;25.10;42.20;;;;;;3055393;19;4560;-24
2023/06/16 00:22:22;;;;;;;;;;;25.20;42.30;;;;;;3056398;19;4539;-24
2023/06/16 00:23:23;;;;;;;;;;;25.20;42.30;;;;;;3055217;19;4538;-24
2023/06/16 00:24:23;;;;;;;;;;;25.20;42.40;;;;;;3055064;19;4559;-23
2023/06/16 00:25:24;;;;;;;;;;;25.10;42.20;;;;;;3056061;19;4618;-23
2023/06/16 00:26:26;;;;;;;;;;;25.20;42.30;;;;;;3055524;19;4618;-23
2023/06/16 00:27:27;;;;;;;;;;;25.10;42.30;;;;;;3056219;19;4563;-23
2023/06/16 00:28:27;;;;;;;;;;;25.10;42.30;;;;;;3055626;19;4481;-24
2023/06/16 00:29:28;;;;;;;;;;;25.10;42.20;;;;;;3056158;19;4527;-23
2023/06/16 00:30:28;;;;;;;;;;;25.10;42.20;;;;;;3055800;19;4555;-23
2023/06/16 00:31:31;;;;;;;;;;;25.10;42.20;;;;;;3055283;19;4440;-24
2023/06/16 00:32:32;;;;;;;;;;;25.10;42.10;;;;;;3055962;19;4667;-23
2023/06/16 00:33:32;;;;;;;;;;;25.10;42.30;;;;;;3056152;19;4526;-23
2023/06/16 00:34:33;;;;;;;;;;;25.10;42.10;;;;;;3055501;19;4524;-23
2023/06/16 00:35:34;;;;;;;;;;;25.10;42.90;;;;;;3055762;19;4392;-24
2023/06/16 00:36:35;;;;;;;;;;;25.10;42.20;;;;;;3055609;19;4480;-24
2023/06/16 00:37:36;;;;;;;;;;;25.10;42.30;;;;;;3055959;19;4536;-24
2023/06/16 00:38:37;;;;;;;;;;;25.10;42.20;;;;;;3055098;19;4523;-23
2023/06/16 00:39:38;;;;;;;;;;;25.10;42.20;;;;;;3055731;19;4831;-23
2023/06/16 00:40:38;;;;;;;;;;;25.10;42.20;;;;;;3055287;19;4510;-24
2023/06/16 00:41:39;;;;;;;;;;;25.10;42.20;;;;;;3055641;19;4516;-23
2023/06/16 00:42:40;;;;;;;;;;;25.10;42.20;;;;;;3055549;19;4547;-24
2023/06/16 00:43:40;;;;;;;;;;;25.00;42.20;;;;;;3055938;19;4511;-24
2023/06/16 00:44:41;;;;;;;;;;;25.10;42.10;;;;;;3054904;19;4392;-23
2023/06/16 00:45:41;;;;;;;;;;;25.10;42.10;;;;;;3054850;19;4585;-23
2023/06/16 00:46:42;;;;;;;;;;;25.10;42.10;;;;;;3055570;19;4618;-24
2023/06/16 00:47:43;;;;;;;;;;;25.10;42.20;;;;;;3054427;19;4621;-24
2023/06/16 00:48:43;;;;;;;;;;;25.00;42.00;;;;;;3055048;19;4522;-24
2023/06/16 00:49:44;;;;;;;;;;;25.10;42.10;;;;;;3054942;19;4535;-24
2023/06/16 00:50:44;;;;;;;;;;;25.00;42.20;;;;;;3055623;19;4524;-23
2023/06/16 00:51:45;;;;;;;;;;;25.00;42.00;;;;;;3055487;19;4515;-23
2023/06/16 00:52:46;;;;;;;;;;;25.10;42.10;;;;;;3055014;19;4639;-24
2023/06/16 00:53:47;;;;;;;;;;;25.00;42.00;;;;;;3054150;19;4509;-24
2023/06/16 00:54:48;;;;;;;;;;;25.10;42.10;;;;;;3055063;19;4483;-23
2023/06/16 00:55:48;;;;;;;;;;;25.00;42.10;;;;;;3054987;19;4501;-23
2023/06/16 00:56:51;;;;;;;;;;;25.00;42.00;;;;;;3055048;19;4489;-24
2023/06/16 00:57:52;;;;;;;;;;;25.00;42.00;;;;;;3055313;19;4520;-24
2023/06/16 00:58:53;;;;;;;;;;;25.00;42.10;;;;;;3055324;19;4471;-23
2023/06/16 00:59:54;;;;;;;;;;;25.00;42.10;;;;;;3054517;19;4413;-23
2023/06/16 01:00:54;;;;;;;;;;;25.00;42.70;;;;;;3055521;19;4553;-23
2023/06/16 01:01:55;;;;;;;;;;;25.00;42.10;;;;;;3054476;19;4611;-23
2023/06/16 01:02:56;;;;;;;;;;;25.00;42.10;;;;;;3055340;19;4473;-23
2023/06/16 01:03:57;;;;;;;;;;;25.00;42.00;;;;;;3055293;19;4534;-23
2023/06/16 01:04:58;;;;;;;;;;;25.00;42.10;;;;;;3054317;19;4328;-24
2023/06/16 01:06:03;;;;;;;;;;;25.00;42.00;;;;;;3055592;19;4498;-23
2023/06/16 01:07:12;;;;;;;;;;;25.00;42.00;;;;;;3055403;19;4548;-24
2023/06/16 01:08:15;;;;;;;;;;;25.00;42.00;;;;;;3054319;19;4466;-24
2023/06/16 01:09:29;;;;;;;;;;;25.00;42.00;;;;;;3053109;19;4383;-26
2023/06/16 01:10:43;;;;;;;;;;;25.00;41.90;;;;;;3054327;19;4499;-23
2023/06/16 01:11:52;;;;;;;;;;;25.00;42.00;;;;;;3055041;19;4500;-24
2023/06/16 01:13:00;;;;;;;;;;;25.00;42.00;;;;;;3055194;19;4550;-24
2023/06/16 01:14:05;;;;;;;;;;;25.00;41.90;;;;;;3054666;19;4471;-23
2023/06/16 01:15:10;;;;;;;;;;;25.00;42.00;;;;;;3055397;19;4281;-23
2023/06/16 01:16:11;;;;;;;;;;;25.00;42.00;;;;;;3054086;19;4430;-24
2023/06/16 01:17:11;;;;;;;;;;;25.00;42.00;;;;;;3055096;19;4540;-24
2023/06/16 01:18:14;;;;;;;;;;;25.00;41.90;;;;;;3054550;19;4538;-24
2023/06/16 01:19:28;;;;;;;;;;;24.90;41.90;;;;;;3051555;19;4643;-26
